Terminal Aerodrome Forecast
Issued by NWS

Current Version | Previous Version | Text Only | Print | Product List | Glossary On
Versions: 1 2 3 4 5 6 7 8 9 10 11 12 13 14
000
FTAK31 PAJN 280526
TAFAWG
TAF
PAWG 280526Z 2806/2906 12010KT 5SM RA BR SCT025 BKN035 OVC060
      WS020/16025KT
     FM281100 12012KT 6SM -RA BR BKN020 OVC035 WS020/16025KT
     FM281400 12012G19KT 4SM RA BR BKN018 OVC030 WS020/16025KT
     FM281800 12014G23KT 4SM RA BR BKN015 OVC030 WS020/16030KT
     FM290000 11012KT 6SM -RA BR BKN025 OVC040 WS020/15030KT
      AMD NOT SKED=

USA.gov is the U.S. government's official web portal to all federal, state and local government web resources and services.